createdAt,value
2019-04-29T00:00:03.001Z,95.9
2019-04-29T00:01:03.338Z,94
2019-04-29T00:02:03.864Z,93.8
2019-04-29T00:03:03.045Z,94
2019-04-29T00:04:02.854Z,94.9
2019-04-29T00:05:03.183Z,96.1
2019-04-29T00:06:02.910Z,95.9
2019-04-29T00:07:03.732Z,94.9
2019-04-29T00:08:03.774Z,95.9
2019-04-29T00:09:06.852Z,95.4
2019-04-29T00:10:03.661Z,94.5
2019-04-29T00:11:03.985Z,94.2
2019-04-29T00:12:03.018Z,94.5
2019-04-29T00:13:03.978Z,95.2
2019-04-29T00:14:03.807Z,94.2
2019-04-29T00:15:03.579Z,94.9
2019-04-29T00:16:03.634Z,94.9
2019-04-29T00:17:03.538Z,95.4
2019-04-29T00:18:03.525Z,95.4
2019-04-29T00:19:03.590Z,94.2
2019-04-29T00:20:03.490Z,94
2019-04-29T00:21:03.369Z,93.1
2019-04-29T00:22:03.271Z,93.3
2019-04-29T00:23:03.478Z,92.1
2019-04-29T00:24:04.600Z,92.6
2019-04-29T00:25:03.455Z,91.7
2019-04-29T00:26:03.370Z,90.7
2019-04-29T00:27:03.736Z,90.3
2019-04-29T00:28:03.350Z,90.5
2019-04-29T00:29:03.664Z,90.7
2019-04-29T00:30:03.600Z,90.3
2019-04-29T00:31:02.897Z,91.2
2019-04-29T00:32:03.274Z,92.1
2019-04-29T00:33:03.103Z,92.6
2019-04-29T00:34:03.152Z,92.1
2019-04-29T00:35:03.158Z,92.1
2019-04-29T00:36:03.354Z,93.5
2019-04-29T00:37:02.802Z,94.5
2019-04-29T00:38:02.868Z,93.8
2019-04-29T00:39:02.937Z,92.1
2019-04-29T00:40:03.734Z,91.2
2019-04-29T00:41:03.465Z,91
2019-04-29T00:42:03.283Z,91.4
2019-04-29T00:43:02.997Z,91.7
2019-04-29T00:44:03.121Z,91
2019-04-29T00:45:03.040Z,91.9
2019-04-29T00:46:03.119Z,92.1
2019-04-29T00:47:02.967Z,92.6
2019-04-29T00:48:02.886Z,93.1
2019-04-29T00:49:03.698Z,92.8
2019-04-29T00:50:04.002Z,92.4
2019-04-29T00:51:03.891Z,92.8
2019-04-29T00:52:03.577Z,92.8
2019-04-29T00:53:03.718Z,91.7
2019-04-29T00:54:03.572Z,91.4
2019-04-29T00:55:03.152Z,92.6
2019-04-29T00:56:03.525Z,91.7
2019-04-29T00:57:03.147Z,91.7
2019-04-29T00:58:03.164Z,91.9
2019-04-29T00:59:03.340Z,91
2019-04-29T01:00:03.324Z,89.1
2019-04-29T01:01:03.382Z,90.7
2019-04-29T01:02:03.067Z,89.8
2019-04-29T01:03:03.176Z,90.5
2019-04-29T01:04:03.261Z,90
2019-04-29T01:05:03.178Z,89.3
2019-04-29T01:06:03.553Z,90
2019-04-29T01:07:02.989Z,90.5
2019-04-29T01:08:03.031Z,90.5
2019-04-29T01:09:03.028Z,91.4
2019-04-29T01:10:03.671Z,91.4
2019-04-29T01:11:03.854Z,91.7
2019-04-29T01:12:03.765Z,91.7
2019-04-29T01:13:03.528Z,91.4
2019-04-29T01:14:03.744Z,91.4
2019-04-29T01:15:03.445Z,91.2
2019-04-29T01:16:03.570Z,91.9
2019-04-29T01:17:03.432Z,91.4
2019-04-29T01:18:03.560Z,91.7
2019-04-29T01:19:04.292Z,92.6
2019-04-29T01:20:03.425Z,92.8
2019-04-29T01:21:03.103Z,92.6
2019-04-29T01:22:03.152Z,92.4
2019-04-29T01:23:03.111Z,93.8
2019-04-29T01:24:02.929Z,92.8
2019-04-29T01:25:02.898Z,92.8
2019-04-29T01:26:03.844Z,92.8
2019-04-29T01:27:03.017Z,93.3
2019-04-29T01:28:02.744Z,91.2
2019-04-29T01:29:02.974Z,91.2
2019-04-29T01:30:03.707Z,90.3
2019-04-29T01:31:03.095Z,90.5
2019-04-29T01:32:03.709Z,90
2019-04-29T01:33:04.080Z,90
2019-04-29T01:34:03.636Z,89.6
2019-04-29T01:35:02.966Z,89.3
2019-04-29T01:36:03.484Z,89.8
2019-04-29T01:37:03.775Z,90.3
2019-04-29T01:38:03.762Z,90
2019-04-29T01:39:03.465Z,90.5
2019-04-29T01:40:03.583Z,90.3
2019-04-29T01:41:03.384Z,90.5
2019-04-29T01:42:03.454Z,91.7
2019-04-29T01:43:03.217Z,91.4
2019-04-29T01:44:03.643Z,91.7
2019-04-29T01:45:03.119Z,90
2019-04-29T01:46:03.412Z,89.3
2019-04-29T01:47:03.197Z,89.1
2019-04-29T01:48:03.661Z,88.9
2019-04-29T01:49:03.483Z,90
2019-04-29T01:50:03.166Z,89.3
2019-04-29T01:51:03.165Z,89.3
2019-04-29T01:52:03.020Z,88.9
2019-04-29T01:53:03.056Z,88.9
2019-04-29T01:54:03.021Z,89.3
2019-04-29T01:55:02.900Z,88.9
2019-04-29T01:56:03.674Z,89.1
2019-04-29T01:57:03.906Z,89.6
2019-04-29T01:58:03.902Z,90.3
2019-04-29T01:59:03.041Z,91
2019-04-29T02:00:03.895Z,91
2019-04-29T02:01:03.183Z,90.7
2019-04-29T02:02:03.892Z,92.6
2019-04-29T02:03:03.522Z,92.8
2019-04-29T02:04:03.732Z,93.8
2019-04-29T02:05:03.538Z,94.2
2019-04-29T02:06:03.405Z,94.5
2019-04-29T02:07:03.308Z,94.5
2019-04-29T02:08:03.115Z,94.5
2019-04-29T02:09:02.994Z,94
2019-04-29T02:10:03.775Z,95.2
2019-04-29T02:11:03.365Z,95.9
2019-04-29T02:12:03.284Z,95.4
2019-04-29T02:13:03.255Z,95.2
2019-04-29T02:14:02.969Z,95.9
2019-04-29T02:15:03.108Z,95.9
2019-04-29T02:16:02.802Z,95.4
2019-04-29T02:17:03.823Z,96.3
2019-04-29T02:18:03.883Z,95.6
2019-04-29T02:19:03.112Z,94.5
2019-04-29T02:20:03.878Z,93.8
2019-04-29T02:21:03.485Z,92.6
2019-04-29T02:22:03.498Z,92.4
2019-04-29T02:23:03.583Z,92.6
2019-04-29T02:24:03.509Z,92.4
2019-04-29T02:25:03.632Z,92.8
2019-04-29T02:26:03.731Z,92.4
2019-04-29T02:27:06.064Z,92.4
2019-04-29T02:28:03.203Z,93.8
2019-04-29T02:29:03.309Z,94.2
2019-04-29T02:30:03.196Z,94.2
2019-04-29T02:31:03.129Z,93.5
2019-04-29T02:32:03.243Z,92.8
2019-04-29T02:33:03.204Z,92.8
2019-04-29T02:34:03.159Z,92.6
2019-04-29T02:35:03.173Z,92.4
2019-04-29T02:36:03.026Z,92.1
2019-04-29T02:37:02.999Z,92.1
2019-04-29T02:38:02.937Z,92.6
2019-04-29T02:39:02.995Z,93.5
2019-04-29T02:40:03.877Z,95.6
2019-04-29T02:41:03.685Z,96.1
2019-04-29T02:42:03.601Z,95.2
2019-04-29T02:43:03.646Z,95.4
2019-04-29T02:44:03.683Z,95.9
2019-04-29T02:45:03.834Z,96.1
2019-04-29T02:46:03.304Z,96.3
2019-04-29T02:47:03.527Z,96.8
2019-04-29T02:48:03.400Z,98
2019-04-29T02:49:03.841Z,96.8
2019-04-29T02:50:03.614Z,97
2019-04-29T02:51:04.138Z,96.1
2019-04-29T02:52:03.250Z,95.6
2019-04-29T02:53:03.257Z,96.1
2019-04-29T02:54:02.981Z,95.9
2019-04-29T02:55:02.911Z,95.9
2019-04-29T02:56:03.118Z,96.8
2019-04-29T02:57:03.043Z,96.1
2019-04-29T02:58:03.186Z,96.1
2019-04-29T02:59:04.023Z,95.4
2019-04-29T03:00:03.092Z,95.2
2019-04-29T03:01:03.845Z,94
2019-04-29T03:02:03.067Z,93.8
2019-04-29T03:03:03.453Z,94
2019-04-29T03:04:03.305Z,93.5
2019-04-29T03:05:03.403Z,93.3
2019-04-29T03:06:03.831Z,92.8
2019-04-29T03:07:03.700Z,91.7
2019-04-29T03:08:03.887Z,91.4
2019-04-29T03:09:03.811Z,89.8
2019-04-29T03:10:04.033Z,88.9
2019-04-29T03:11:03.614Z,88.2
2019-04-29T03:12:03.698Z,88.2
2019-04-29T03:13:03.503Z,88.4
2019-04-29T03:14:03.271Z,87.9
2019-04-29T03:15:03.572Z,86.8
2019-04-29T03:16:03.330Z,86.3
2019-04-29T03:17:03.392Z,85.4
2019-04-29T03:18:03.225Z,85.4
2019-04-29T03:19:03.280Z,87
2019-04-29T03:20:03.071Z,87.9
2019-04-29T03:21:03.310Z,88.9
2019-04-29T03:22:03.082Z,88.9
2019-04-29T03:23:03.503Z,88.4
2019-04-29T03:24:03.249Z,88.4
2019-04-29T03:25:03.492Z,87.5
2019-04-29T03:26:03.060Z,88.2
2019-04-29T03:27:03.831Z,87.5
2019-04-29T03:28:02.978Z,87
2019-04-29T03:29:03.725Z,86.8
2019-04-29T03:30:03.844Z,87.2
2019-04-29T03:31:03.961Z,87.5
2019-04-29T03:32:03.962Z,87.9
2019-04-29T03:33:04.057Z,89.1
2019-04-29T03:34:03.036Z,88.2
2019-04-29T03:35:03.641Z,88.9
2019-04-29T03:36:03.523Z,87.9
2019-04-29T03:37:03.499Z,87.2
2019-04-29T03:38:03.607Z,87.2
2019-04-29T03:39:03.618Z,87.9
2019-04-29T03:40:03.476Z,85.8
2019-04-29T03:41:03.843Z,85.8
2019-04-29T03:42:07.796Z,85.1
2019-04-29T03:43:03.493Z,85.1
2019-04-29T03:44:03.267Z,84.2
2019-04-29T03:45:03.564Z,85.4
2019-04-29T03:46:03.462Z,84.2
2019-04-29T03:47:03.380Z,83.3
2019-04-29T03:48:03.454Z,83.3
2019-04-29T03:49:03.172Z,84.2
2019-04-29T03:50:03.247Z,84.9
2019-04-29T03:51:03.863Z,84.4
2019-04-29T03:52:03.086Z,84.2
2019-04-29T03:53:03.009Z,83.7
2019-04-29T03:54:02.995Z,83.3
2019-04-29T03:55:02.958Z,84
2019-04-29T03:56:02.971Z,84
2019-04-29T03:57:03.032Z,82.8
2019-04-29T03:58:03.493Z,82.3
2019-04-29T03:59:03.996Z,82.6
2019-04-29T04:00:03.775Z,84
2019-04-29T04:01:03.706Z,84
2019-04-29T04:02:03.532Z,84.7
2019-04-29T04:03:03.819Z,83
2019-04-29T04:04:03.471Z,82.3
2019-04-29T04:05:03.690Z,82.1
2019-04-29T04:06:03.537Z,82.6
2019-04-29T04:07:04.556Z,82.6
2019-04-29T04:08:03.278Z,85.1
2019-04-29T04:09:06.926Z,86.5
2019-04-29T04:10:03.486Z,86.8
2019-04-29T04:11:03.255Z,87.5
2019-04-29T04:12:03.461Z,87.5
2019-04-29T04:13:03.240Z,87.7
2019-04-29T04:14:03.014Z,87.7
2019-04-29T04:15:03.362Z,88.2
2019-04-29T04:16:03.307Z,88.9
2019-04-29T04:17:03.089Z,90
2019-04-29T04:18:03.010Z,90.3
2019-04-29T04:19:03.051Z,89.1
2019-04-29T04:20:02.949Z,89.1
2019-04-29T04:21:03.965Z,88.6
2019-04-29T04:22:03.660Z,89.1
2019-04-29T04:23:03.132Z,89.8
2019-04-29T04:24:03.416Z,90.5
2019-04-29T04:25:03.827Z,91
2019-04-29T04:26:03.804Z,90.5
2019-04-29T04:27:03.683Z,92.4
2019-04-29T04:28:03.375Z,93.1
2019-04-29T04:29:03.441Z,93.1
2019-04-29T04:30:03.778Z,92.1
2019-04-29T04:31:07.594Z,93.3
2019-04-29T04:32:03.118Z,93.8
2019-04-29T04:33:03.074Z,94
2019-04-29T04:34:03.364Z,95.2
2019-04-29T04:35:03.116Z,94.2
2019-04-29T04:36:03.603Z,94.7
2019-04-29T04:37:03.760Z,95.2
2019-04-29T04:38:03.245Z,94.7
2019-04-29T04:39:03.185Z,94.7
2019-04-29T04:40:03.315Z,94
2019-04-29T04:41:02.976Z,94.7
2019-04-29T04:42:03.154Z,95.6
2019-04-29T04:43:03.124Z,95.6
2019-04-29T04:44:02.974Z,96.6
2019-04-29T04:45:03.051Z,96.6
2019-04-29T04:46:03.883Z,96.6
2019-04-29T04:47:04.420Z,99.6
2019-04-29T04:48:03.898Z,98
2019-04-29T04:49:03.537Z,96.6
2019-04-29T04:50:03.701Z,96.3
2019-04-29T04:51:03.255Z,97.7
2019-04-29T04:52:03.063Z,98.2
2019-04-29T04:53:03.345Z,98.7
2019-04-29T04:54:03.322Z,99.4
2019-04-29T04:55:03.335Z,98.2
2019-04-29T04:56:03.268Z,98
2019-04-29T04:57:03.255Z,99.1
2019-04-29T04:58:03.346Z,99.1
2019-04-29T04:59:03.075Z,99.4
2019-04-29T05:00:03.226Z,98.7
2019-04-29T05:01:03.180Z,99.1
2019-04-29T05:02:03.104Z,98.2
2019-04-29T05:03:03.767Z,97.7
2019-04-29T05:04:02.875Z,98.2
2019-04-29T05:05:04.054Z,99.8
2019-04-29T05:06:03.665Z,99.4
2019-04-29T05:07:03.031Z,97.7
2019-04-29T05:08:02.950Z,96.1
2019-04-29T05:09:04.102Z,96.1
2019-04-29T05:10:03.916Z,94.7
2019-04-29T05:11:03.393Z,94
2019-04-29T05:12:03.994Z,93.3
2019-04-29T05:13:03.551Z,93.3
2019-04-29T05:14:02.976Z,92.1
2019-04-29T05:15:03.446Z,92.4
2019-04-29T05:16:03.188Z,91.7
2019-04-29T05:17:03.471Z,91.7
2019-04-29T05:18:03.406Z,91.7
2019-04-29T05:19:03.444Z,93.5
2019-04-29T05:20:03.340Z,92.6
2019-04-29T05:21:03.273Z,94
2019-04-29T05:22:03.501Z,93.8
2019-04-29T05:23:03.254Z,93.3
2019-04-29T05:24:03.175Z,93.5
2019-04-29T05:25:03.561Z,93.1
2019-04-29T05:26:03.127Z,93.5
2019-04-29T05:27:02.845Z,92.1
2019-04-29T05:28:03.096Z,93.8
2019-04-29T05:29:02.917Z,93.8
2019-04-29T05:30:03.802Z,96.3
2019-04-29T05:31:03.703Z,94.7
2019-04-29T05:32:02.941Z,94.5
2019-04-29T05:33:03.508Z,93.3
2019-04-29T05:34:03.641Z,92.8
2019-04-29T05:35:03.812Z,93.3
2019-04-29T05:36:04.148Z,94.5
2019-04-29T05:37:03.371Z,94.5
2019-04-29T05:38:03.720Z,94.5
2019-04-29T05:39:03.602Z,94.9
2019-04-29T05:40:03.483Z,94.9
2019-04-29T05:41:03.580Z,94.7
2019-04-29T05:42:03.173Z,94.5
2019-04-29T05:43:05.435Z,94
2019-04-29T05:44:03.028Z,94.2
2019-04-29T05:45:03.396Z,93.3
2019-04-29T05:46:03.188Z,92.6
2019-04-29T05:47:03.200Z,91.4
2019-04-29T05:48:03.037Z,91.2
2019-04-29T05:49:09.168Z,91.9
2019-04-29T05:50:06.826Z,91.7
2019-04-29T05:51:02.990Z,92.8
2019-04-29T05:52:03.447Z,92.4
2019-04-29T05:53:03.899Z,91.2
2019-04-29T05:54:03.769Z,91.4
2019-04-29T05:55:03.789Z,93.8
2019-04-29T05:56:02.971Z,94.7
2019-04-29T05:57:03.642Z,94.9
2019-04-29T05:58:04.128Z,94
2019-04-29T05:59:03.574Z,94.7
2019-04-29T06:00:03.705Z,93.8
2019-04-29T06:01:03.349Z,93.8
2019-04-29T06:02:03.714Z,93.8
2019-04-29T06:03:03.655Z,94.7
2019-04-29T06:04:03.366Z,94.9
2019-04-29T06:05:03.487Z,94.2
2019-04-29T06:06:03.425Z,94.5
2019-04-29T06:07:03.619Z,97
2019-04-29T06:08:03.760Z,97.7
2019-04-29T06:09:03.769Z,97.7
2019-04-29T06:10:03.595Z,99.4
2019-04-29T06:11:03.468Z,99.4
2019-04-29T06:12:03.071Z,99.4
2019-04-29T06:13:03.477Z,100.5
2019-04-29T06:14:03.309Z,101.9
2019-04-29T06:15:03.225Z,101.9
2019-04-29T06:16:03.255Z,101.7
2019-04-29T06:17:08.037Z,100.8
2019-04-29T06:18:02.981Z,100.8
2019-04-29T06:19:06.239Z,100.3
2019-04-29T06:20:03.432Z,100.3
2019-04-29T06:21:10.044Z,100.1
2019-04-29T06:22:04.222Z,99.8
2019-04-29T06:23:02.941Z,100.5
2019-04-29T06:24:06.590Z,99.1
2019-04-29T06:25:03.329Z,100.3
2019-04-29T06:26:03.687Z,100.1
2019-04-29T06:27:03.519Z,101
2019-04-29T06:28:03.810Z,100.3
2019-04-29T06:29:06.356Z,97.3
2019-04-29T06:30:05.177Z,98.2
2019-04-29T06:31:03.391Z,98.4
2019-04-29T06:32:03.410Z,100.5
2019-04-29T06:33:03.662Z,101
2019-04-29T06:34:06.796Z,100.1
2019-04-29T06:35:03.643Z,101.7
2019-04-29T06:36:03.209Z,101
2019-04-29T06:37:03.347Z,100.1
2019-04-29T06:38:03.507Z,100.3
2019-04-29T06:39:03.307Z,100.3
2019-04-29T06:40:03.227Z,101.7
2019-04-29T06:41:11.049Z,100.5
2019-04-29T06:42:03.089Z,101
2019-04-29T06:43:03.384Z,101.2
2019-04-29T06:44:17.133Z,100.5
2019-04-29T06:45:03.369Z,100.8
2019-04-29T06:46:03.198Z,100.8
2019-04-29T06:47:03.107Z,101
2019-04-29T06:48:03.109Z,102.2
2019-04-29T06:49:11.144Z,101.7
2019-04-29T06:50:03.177Z,102.9
2019-04-29T06:51:03.776Z,101.2
2019-04-29T06:52:02.947Z,102.4
2019-04-29T06:53:04.619Z,103.1
2019-04-29T06:54:03.694Z,102.6
2019-04-29T06:55:03.750Z,101
2019-04-29T06:56:03.340Z,100.3
2019-04-29T06:57:03.695Z,99.4
2019-04-29T06:58:03.954Z,99.6
2019-04-29T06:59:03.499Z,99.4
2019-04-29T07:00:03.562Z,99.6
2019-04-29T07:01:03.639Z,99.4
2019-04-29T07:02:03.589Z,98.4
2019-04-29T07:03:03.294Z,98.2
2019-04-29T07:04:03.401Z,98.2
2019-04-29T07:05:03.549Z,98.2
2019-04-29T07:06:03.100Z,98
2019-04-29T07:07:03.899Z,96.3
2019-04-29T07:08:02.875Z,96.6
2019-04-29T07:09:03.532Z,96.8
2019-04-29T07:10:02.829Z,96.6
2019-04-29T07:11:03.592Z,96.8
2019-04-29T07:12:03.287Z,96.6
2019-04-29T07:13:03.027Z,96.1
2019-04-29T07:14:02.931Z,96.1
2019-04-29T07:15:03.156Z,95.9
2019-04-29T07:16:03.703Z,95.4
2019-04-29T07:17:07.407Z,95.2
2019-04-29T07:18:03.019Z,94
2019-04-29T07:19:04.033Z,94.5
2019-04-29T07:20:03.864Z,95.6
2019-04-29T07:21:03.456Z,95.9
2019-04-29T07:22:03.845Z,95.9
2019-04-29T07:23:03.740Z,96.1
2019-04-29T07:24:03.366Z,96.1
2019-04-29T07:25:03.799Z,95.6
2019-04-29T07:26:03.547Z,94.7
2019-04-29T07:27:04.684Z,93.8
2019-04-29T07:28:03.439Z,92.8
2019-04-29T07:29:03.216Z,94.2
2019-04-29T07:30:08.626Z,93.8
2019-04-29T07:31:03.526Z,94.5
2019-04-29T07:32:10.859Z,92.8
2019-04-29T07:33:05.867Z,93.1
2019-04-29T07:34:02.724Z,94.5
2019-04-29T07:35:11.658Z,93.8
2019-04-29T07:36:11.744Z,93.5
2019-04-29T07:37:03.917Z,94.2
2019-04-29T07:38:10.036Z,94.7
2019-04-29T07:39:03.725Z,94.9
2019-04-29T07:40:09.662Z,93.3
2019-04-29T07:41:03.880Z,94
2019-04-29T07:42:03.662Z,93.3
2019-04-29T07:43:09.792Z,94.5
2019-04-29T07:44:03.706Z,94.2
2019-04-29T07:45:03.776Z,94.2
2019-04-29T07:46:05.774Z,93.5
2019-04-29T07:47:03.560Z,93.1
2019-04-29T07:48:07.907Z,93.1
2019-04-29T07:49:06.043Z,93.1
2019-04-29T07:50:03.454Z,91.7
2019-04-29T07:51:06.150Z,91.2
2019-04-29T07:52:03.521Z,91.2
2019-04-29T07:53:03.620Z,91.7
2019-04-29T07:54:03.496Z,91.7
2019-04-29T07:55:03.309Z,91.7
2019-04-29T07:56:08.391Z,91.2
2019-04-29T07:57:03.078Z,91.9
2019-04-29T07:58:03.249Z,92.1
2019-04-29T07:59:04.822Z,91.7
2019-04-29T08:00:03.237Z,91.7
2019-04-29T08:01:02.990Z,92.1
2019-04-29T08:02:03.401Z,92.1
2019-04-29T08:03:03.117Z,92.1
2019-04-29T08:04:02.938Z,91.7
2019-04-29T08:05:04.043Z,90.5
2019-04-29T08:06:03.982Z,90.5
2019-04-29T08:07:03.702Z,90
2019-04-29T08:08:03.497Z,91.4
2019-04-29T08:09:09.971Z,90.5
2019-04-29T08:10:03.705Z,91.7
2019-04-29T08:11:03.602Z,92.4
2019-04-29T08:12:03.710Z,92.8
2019-04-29T08:13:03.420Z,93.1
2019-04-29T08:14:03.354Z,92.6
2019-04-29T08:15:09.568Z,92.8
2019-04-29T08:16:03.185Z,94
2019-04-29T08:17:03.228Z,94
2019-04-29T08:18:18.312Z,94.7
2019-04-29T08:19:05.772Z,94.7
2019-04-29T08:20:06.618Z,93.8
2019-04-29T08:21:02.851Z,93.8
2019-04-29T08:22:03.817Z,94.5
2019-04-29T08:23:04.399Z,94.2
2019-04-29T08:24:03.877Z,95.2
2019-04-29T08:25:04.011Z,95.2
2019-04-29T08:26:04.767Z,95.6
2019-04-29T08:27:03.865Z,96.6
2019-04-29T08:28:03.549Z,95.9
2019-04-29T08:29:03.571Z,96.6
2019-04-29T08:30:12.880Z,97.7
2019-04-29T08:31:04.071Z,98
2019-04-29T08:32:03.816Z,97.7
2019-04-29T08:33:13.198Z,96.8
2019-04-29T08:34:03.753Z,95.2
2019-04-29T08:35:03.644Z,94.5
2019-04-29T08:36:03.576Z,93.8
2019-04-29T08:37:03.505Z,94.5
2019-04-29T08:38:03.265Z,96.6
2019-04-29T08:39:09.290Z,96.3
2019-04-29T08:40:17.158Z,95.9
2019-04-29T08:42:09.496Z,94
2019-04-29T08:43:03.180Z,93.1
2019-04-29T08:44:17.032Z,92.6
2019-04-29T08:46:03.712Z,93.8
2019-04-29T08:47:03.970Z,93.8
2019-04-29T08:48:03.928Z,93.5
2019-04-29T08:49:14.857Z,92.8
2019-04-29T08:51:03.741Z,94.2
2019-04-29T08:52:03.525Z,94
2019-04-29T08:53:03.323Z,92.6
2019-04-29T08:54:03.674Z,94.2
2019-04-29T08:55:03.995Z,93.8
2019-04-29T08:56:12.246Z,93.8
2019-04-29T08:57:04.633Z,92.4
2019-04-29T08:58:13.060Z,91.4
2019-04-29T08:59:03.581Z,91.4
2019-04-29T09:00:03.613Z,91.9
2019-04-29T09:01:03.475Z,92.6
2019-04-29T09:02:11.569Z,94.5
2019-04-29T09:03:03.456Z,94
2019-04-29T09:04:03.387Z,94.5
2019-04-29T09:05:13.372Z,95.9
2019-04-29T09:06:06.369Z,96.3
2019-04-29T09:07:23.192Z,97
2019-04-29T09:08:03.456Z,94.9
2019-04-29T09:09:29.840Z,95.4
2019-04-29T09:11:03.474Z,93.1
2019-04-29T09:12:03.202Z,93.5
2019-04-29T09:13:03.450Z,93.8
2019-04-29T09:14:03.294Z,94.7
2019-04-29T09:15:03.483Z,95.2
2019-04-29T09:16:03.750Z,95.2
2019-04-29T09:17:21.063Z,95.4
2019-04-29T09:19:03.287Z,96.8
2019-04-29T09:20:02.964Z,96.6
2019-04-29T09:21:03.079Z,95.9
2019-04-29T09:22:02.936Z,94.9
2019-04-29T09:23:03.767Z,95.9
2019-04-29T09:24:03.896Z,96.3
2019-04-29T09:25:03.761Z,96.6
2019-04-29T09:26:03.639Z,97
2019-04-29T09:27:11.403Z,96.6
2019-04-29T09:28:03.643Z,96.6
2019-04-29T09:29:05.709Z,94.9
2019-04-29T09:30:03.046Z,92.4
2019-04-29T09:31:03.527Z,91.7
2019-04-29T09:32:03.753Z,92.1
2019-04-29T09:33:03.784Z,92.8
2019-04-29T09:34:07.275Z,94.5
2019-04-29T09:35:03.668Z,94.9
2019-04-29T09:36:03.771Z,96.6
2019-04-29T09:37:03.485Z,97.3
2019-04-29T09:38:03.392Z,94.2
2019-04-29T09:39:03.864Z,94.2
2019-04-29T09:40:03.438Z,94.2
2019-04-29T09:41:03.290Z,94.2
2019-04-29T09:42:14.999Z,96.6
2019-04-29T09:43:16.198Z,97.5
2019-04-29T09:44:05.748Z,98.9
2019-04-29T09:45:03.181Z,98.2
2019-04-29T09:46:03.202Z,97
2019-04-29T09:47:10.395Z,96.8
2019-04-29T09:48:03.059Z,97.7
2019-04-29T09:49:03.092Z,98.7
2019-04-29T09:50:03.277Z,98
2019-04-29T09:51:29.575Z,97.5
2019-04-29T09:53:03.920Z,99.8
2019-04-29T09:54:03.866Z,98.2
2019-04-29T09:55:06.019Z,98.9
2019-04-29T09:56:03.521Z,99.1
2019-04-29T09:57:03.826Z,99.6
2019-04-29T09:58:03.936Z,100.8
2019-04-29T09:59:03.233Z,101
2019-04-29T10:00:07.308Z,101
2019-04-29T10:01:03.771Z,100.1
2019-04-29T10:02:03.680Z,99.1
2019-04-29T10:03:03.622Z,99.6
2019-04-29T10:04:03.435Z,99.4
2019-04-29T10:05:03.192Z,99.1
2019-04-29T10:06:03.390Z,99.1
2019-04-29T10:07:03.144Z,98.4
2019-04-29T10:08:03.245Z,98.4
2019-04-29T10:09:03.486Z,98
2019-04-29T10:10:08.045Z,98
2019-04-29T10:11:03.189Z,97
2019-04-29T10:12:03.048Z,97
2019-04-29T10:13:02.786Z,96.6
2019-04-29T10:14:03.140Z,95.2
2019-04-29T10:15:03.278Z,94.5
2019-04-29T10:16:03.056Z,93.3
2019-04-29T10:17:03.898Z,92.8
2019-04-29T10:18:04.069Z,92.6
2019-04-29T10:19:07.168Z,91.9
2019-04-29T10:20:08.356Z,92.4
2019-04-29T10:21:03.945Z,93.3
2019-04-29T10:22:02.990Z,94.7
2019-04-29T10:23:03.228Z,95.2
2019-04-29T10:24:02.914Z,94
2019-04-29T10:25:03.450Z,93.5
2019-04-29T10:26:03.499Z,92.4
2019-04-29T10:27:03.308Z,91.7
2019-04-29T10:28:03.894Z,92.4
2019-04-29T10:29:03.669Z,93.3
2019-04-29T10:30:03.526Z,94.9
2019-04-29T10:31:03.132Z,95.4
2019-04-29T10:32:08.779Z,94.2
2019-04-29T10:33:03.396Z,94.9
2019-04-29T10:34:03.101Z,94.2
2019-04-29T10:35:10.926Z,94
2019-04-29T10:36:03.310Z,92.1
2019-04-29T10:37:03.251Z,90.7
2019-04-29T10:38:04.398Z,91.7
2019-04-29T10:39:03.346Z,91.2
2019-04-29T10:40:11.932Z,92.4
2019-04-29T10:41:03.054Z,93.1
2019-04-29T10:42:02.689Z,93.1
2019-04-29T10:43:03.955Z,90.7
2019-04-29T10:44:02.835Z,90
2019-04-29T10:45:04.092Z,90.5
2019-04-29T10:46:02.953Z,91.4
2019-04-29T10:47:03.780Z,91.9
2019-04-29T10:48:03.668Z,90.7
2019-04-29T10:49:05.483Z,91.4
2019-04-29T10:50:03.807Z,91.9
2019-04-29T10:51:03.701Z,92.8
2019-04-29T10:52:04.868Z,92.4
2019-04-29T10:53:03.837Z,90
2019-04-29T10:54:03.409Z,89.8
2019-04-29T10:55:03.722Z,90
2019-04-29T10:56:07.224Z,90
2019-04-29T10:57:03.495Z,90.7
2019-04-29T10:58:03.219Z,89.6
2019-04-29T10:59:11.266Z,89.3
2019-04-29T11:00:03.477Z,90
2019-04-29T11:01:03.593Z,90
2019-04-29T11:02:16.056Z,90.5
2019-04-29T11:03:03.952Z,90.7
2019-04-29T11:04:03.042Z,90
2019-04-29T11:05:03.266Z,88.9
2019-04-29T11:06:03.098Z,88.2
2019-04-29T11:07:27.532Z,89.6
2019-04-29T11:09:03.959Z,90.7
2019-04-29T11:10:03.002Z,91.9
2019-04-29T11:11:03.470Z,93.1
2019-04-29T11:12:03.155Z,93.3
2019-04-29T11:13:03.719Z,94
2019-04-29T11:14:03.696Z,94.7
2019-04-29T11:15:03.891Z,94.7
2019-04-29T11:16:03.492Z,94.7
2019-04-29T11:17:03.714Z,94.2
2019-04-29T11:18:04.178Z,94
2019-04-29T11:19:06.165Z,94.2
2019-04-29T11:20:03.651Z,93.8
2019-04-29T11:21:03.787Z,94
2019-04-29T11:22:03.968Z,93.1
2019-04-29T11:23:03.834Z,92.1
2019-04-29T11:24:03.748Z,93.5
2019-04-29T11:25:03.592Z,93.3
2019-04-29T11:26:03.422Z,93.8
2019-04-29T11:27:12.800Z,93.8
2019-04-29T11:28:03.449Z,93.1
2019-04-29T11:29:09.811Z,92.4
2019-04-29T11:30:05.138Z,92.6
2019-04-29T11:31:03.350Z,92.4
2019-04-29T11:32:03.214Z,93.3
2019-04-29T11:33:06.418Z,93.1
2019-04-29T11:34:05.755Z,93.1
2019-04-29T11:35:02.862Z,93.8
2019-04-29T11:36:06.128Z,94
2019-04-29T11:37:03.614Z,93.8
2019-04-29T11:38:03.653Z,94
2019-04-29T11:39:03.927Z,94.5
2019-04-29T11:40:04.053Z,93.8
2019-04-29T11:41:04.094Z,93.5
2019-04-29T11:42:03.672Z,93.5
2019-04-29T11:43:03.999Z,93.5
2019-04-29T11:44:03.886Z,93.3
2019-04-29T11:45:04.090Z,92.8
2019-04-29T11:46:03.511Z,92.8
2019-04-29T11:47:03.558Z,92.8
2019-04-29T11:48:03.557Z,94.9
2019-04-29T11:49:02.445Z,94.7
2019-04-29T11:50:03.365Z,93.3
2019-04-29T11:51:03.259Z,92.4
2019-04-29T11:52:10.691Z,93.3
2019-04-29T11:53:03.461Z,97
2019-04-29T11:54:03.344Z,97.7
2019-04-29T11:55:03.474Z,98.2
2019-04-29T11:56:03.099Z,98.2
2019-04-29T11:57:03.527Z,98
2019-04-29T11:58:03.169Z,98
2019-04-29T11:59:03.489Z,99.4
2019-04-29T12:00:03.146Z,98.7
2019-04-29T12:01:10.474Z,98.9
2019-04-29T12:02:03.134Z,98.4
2019-04-29T12:03:03.073Z,98
2019-04-29T12:04:03.022Z,98.7
2019-04-29T12:05:10.271Z,101
2019-04-29T12:06:03.900Z,101.5
2019-04-29T12:07:02.985Z,101.2
2019-04-29T12:08:18.651Z,101
2019-04-29T12:09:07.048Z,100.3
2019-04-29T12:10:08.116Z,99.6
2019-04-29T12:11:07.862Z,98.7
2019-04-29T12:12:03.625Z,97.7
2019-04-29T12:13:03.749Z,97.5
2019-04-29T12:14:04.877Z,98.7
2019-04-29T12:15:03.919Z,100.1
2019-04-29T12:16:03.758Z,101
2019-04-29T12:17:03.661Z,102.9
2019-04-29T12:18:03.688Z,102.6
2019-04-29T12:19:03.807Z,102.6
2019-04-29T12:20:03.892Z,102.4
2019-04-29T12:21:03.748Z,101
2019-04-29T12:22:30.461Z,100.8
2019-04-29T12:24:03.646Z,99.6
2019-04-29T12:25:03.832Z,100.1
2019-04-29T12:26:05.233Z,100.3
2019-04-29T12:27:03.549Z,101.5
2019-04-29T12:28:19.911Z,101.9
2019-04-29T12:30:03.362Z,102.6
2019-04-29T12:31:11.635Z,102.9
2019-04-29T12:32:03.235Z,102.9
2019-04-29T12:33:03.522Z,101.7
2019-04-29T12:34:03.365Z,101.5
2019-04-29T12:35:03.367Z,100.8
2019-04-29T12:36:05.404Z,101.2
2019-04-29T12:37:03.322Z,101.2
2019-04-29T12:38:11.436Z,101
2019-04-29T12:39:03.471Z,100.8
2019-04-29T12:40:03.072Z,100.5
2019-04-29T12:41:03.025Z,101
2019-04-29T12:42:05.997Z,100.8
2019-04-29T12:43:03.261Z,101.9
2019-04-29T12:44:02.930Z,101.2
2019-04-29T12:45:03.486Z,101.2
2019-04-29T12:46:03.319Z,101
2019-04-29T12:47:02.914Z,101.5
2019-04-29T12:48:06.875Z,99.8
2019-04-29T12:49:14.123Z,98.2
2019-04-29T12:50:03.908Z,98.9
2019-04-29T12:51:03.000Z,101
2019-04-29T12:52:03.811Z,99.8
2019-04-29T12:53:03.999Z,96.8
2019-04-29T12:54:03.720Z,96.6
2019-04-29T12:55:51.428Z,96.3
2019-04-29T12:57:03.856Z,96.3
2019-04-29T12:58:03.522Z,97.5
2019-04-29T12:59:04.414Z,97
2019-04-29T13:00:09.360Z,98.4
2019-04-29T13:01:06.289Z,98.7
2019-04-29T13:02:05.219Z,98
2019-04-29T13:03:04.445Z,98.7
2019-04-29T13:04:03.308Z,98.4
2019-04-29T13:05:03.079Z,96.6
2019-04-29T13:06:03.535Z,95.9
2019-04-29T13:07:05.083Z,95.9
2019-04-29T13:08:03.481Z,95.6
2019-04-29T13:09:18.413Z,94.9
2019-04-29T13:10:08.756Z,95.4
2019-04-29T13:11:02.951Z,96.6
2019-04-29T13:12:20.306Z,95.9
2019-04-29T13:14:03.880Z,93.8
2019-04-29T13:15:13.962Z,93.3
2019-04-29T13:17:15.224Z,92.4
2019-04-29T13:18:23.799Z,92.1
2019-04-29T13:19:21.008Z,91.7
2019-04-29T13:21:11.026Z,92.8
2019-04-29T13:22:03.479Z,93.1
2019-04-29T13:24:05.218Z,95.2
2019-04-29T13:24:26.099Z,94.7
2019-04-29T13:26:03.320Z,94.5
2019-04-29T13:27:26.663Z,94.9
2019-04-29T13:29:03.092Z,94.2
2019-04-29T13:30:16.575Z,94
2019-04-29T13:31:03.440Z,94
2019-04-29T13:32:03.126Z,94.7
2019-04-29T13:33:17.303Z,94.5
2019-04-29T13:34:33.512Z,94.2
2019-04-29T13:36:03.101Z,94.5
2019-04-29T13:37:20.114Z,94.2
2019-04-29T13:38:03.018Z,95.2